Time;durP1;ratioP1;P1;durP2;ratioP2;P2;SDS_P1;SDS_P2;PMS_P1;PMS_P2;Temp;Humidity;BMP_temperature;BMP_pressure;BME280_temperature;BME280_humidity;BME280_pressure;Samples;Min_cycle;Max_cycle;Signal;HPM_P1;HPM_P2
2023/09/21 00:00:45;;;;;;;0.40;0.40;;;21.70;53.70;;;;;;5152466;27;20475;-66
2023/09/21 00:03:12;;;;;;;0.40;0.40;;;21.70;53.70;;;;;;5153323;27;20471;-68
2023/09/21 00:05:37;;;;;;;0.40;0.40;;;21.70;53.60;;;;;;5152725;27;20031;-67
2023/09/21 00:08:04;;;;;;;0.50;0.50;;;21.70;53.50;;;;;;5152898;27;20425;-67
2023/09/21 00:10:32;;;;;;;0.40;0.40;;;21.70;53.40;;;;;;5152625;27;20134;-66
2023/09/21 00:13:00;;;;;;;0.32;0.32;;;21.70;53.40;;;;;;5152454;27;20055;-67
2023/09/21 00:15:29;;;;;;;0.40;0.40;;;21.60;53.30;;;;;;5152808;27;20037;-67
2023/09/21 00:17:59;;;;;;;0.30;0.30;;;21.60;53.30;;;;;;5152998;27;20490;-67
2023/09/21 00:20:28;;;;;;;0.40;0.40;;;21.50;53.40;;;;;;5153085;27;20027;-67
2023/09/21 00:22:54;;;;;;;0.40;0.40;;;21.50;53.40;;;;;;5152865;27;20371;-67
2023/09/21 00:25:22;;;;;;;0.47;0.47;;;21.50;53.20;;;;;;5152545;27;20479;-67
2023/09/21 00:27:47;;;;;;;0.30;0.30;;;21.40;53.50;;;;;;5152868;27;20029;-66
2023/09/21 00:30:13;;;;;;;0.50;0.50;;;21.40;53.80;;;;;;5152414;27;20039;-66
2023/09/21 00:32:39;;;;;;;0.40;0.40;;;21.40;53.80;;;;;;5152704;27;20026;-67
2023/09/21 00:35:10;;;;;;;0.40;0.40;;;21.40;53.80;;;;;;5152752;27;20179;-67
2023/09/21 00:37:40;;;;;;;0.57;0.57;;;21.50;53.80;;;;;;5169582;27;20409;-67
2023/09/21 00:40:17;;;;;;;0.60;0.60;;;21.60;53.80;;;;;;5177316;27;20482;-67
2023/09/21 00:42:47;;;;;;;0.40;0.40;;;21.60;53.70;;;;;;5177457;27;20125;-66
2023/09/21 00:45:18;;;;;;;0.40;0.40;;;21.60;53.60;;;;;;5177063;27;20030;-67
2023/09/21 00:47:49;;;;;;;0.40;0.40;;;21.60;53.50;;;;;;5176932;27;20026;-67
2023/09/21 00:50:21;;;;;;;0.50;0.50;;;21.60;53.50;;;;;;5177070;27;20048;-67
2023/09/21 00:52:51;;;;;;;0.40;0.40;;;21.60;53.40;;;;;;5175730;27;20486;-67
2023/09/21 00:55:23;;;;;;;0.32;0.32;;;21.50;53.40;;;;;;5176935;27;20051;-66
2023/09/21 00:57:51;;;;;;;0.68;0.60;;;21.50;53.30;;;;;;5177074;27;20042;-67
2023/09/21 01:00:18;;;;;;;0.40;0.40;;;21.50;53.30;;;;;;5176801;27;20453;-67
2023/09/21 01:02:46;;;;;;;1.08;0.98;;;21.30;53.30;;;;;;5177038;27;20022;-68
2023/09/21 01:05:17;;;;;;;0.50;0.50;;;21.30;53.40;;;;;;5176963;27;20402;-66
2023/09/21 01:07:44;;;;;;;0.40;0.40;;;21.30;53.50;;;;;;5177152;27;20026;-66
2023/09/21 01:10:11;;;;;;;0.30;0.30;;;21.30;53.40;;;;;;5176795;27;20585;-67
2023/09/21 01:12:38;;;;;;;0.40;0.40;;;21.30;53.70;;;;;;5177220;27;20466;-67
2023/09/21 01:15:08;;;;;;;0.40;0.40;;;21.30;53.70;;;;;;5174909;27;20099;-67
2023/09/21 01:17:34;;;;;;;0.45;0.45;;;21.20;53.70;;;;;;5176879;27;20038;-67
2023/09/21 01:20:18;;;;;;;0.40;0.40;;;21.20;53.70;;;;;;5176307;27;20631;-66
2023/09/21 01:23:11;;;;;;;0.30;0.30;;;21.20;53.70;;;;;;5176450;27;20504;-67
2023/09/21 01:25:41;;;;;;;0.40;0.40;;;21.20;53.70;;;;;;5176503;27;20029;-67
2023/09/21 01:28:10;;;;;;;0.40;0.40;;;21.10;53.60;;;;;;5176567;27;20038;-66
2023/09/21 01:30:39;;;;;;;0.30;0.30;;;21.10;53.70;;;;;;5176136;27;20050;-67
2023/09/21 01:33:07;;;;;;;0.30;0.30;;;21.00;53.70;;;;;;5176496;27;20377;-66
2023/09/21 01:35:33;;;;;;;0.40;0.40;;;21.00;53.90;;;;;;5176149;27;20018;-67
2023/09/21 01:37:59;;;;;;;0.30;0.30;;;21.00;53.90;;;;;;5176442;27;20467;-67
2023/09/21 01:40:24;;;;;;;0.30;0.30;;;20.90;53.80;;;;;;5176013;27;20018;-66
2023/09/21 01:42:50;;;;;;;0.50;0.50;;;20.90;53.90;;;;;;5176248;27;20417;-66
2023/09/21 01:45:16;;;;;;;0.40;0.40;;;20.80;53.90;;;;;;5175988;27;20102;-67
2023/09/21 01:47:43;;;;;;;0.85;0.85;;;20.80;53.90;;;;;;5175788;27;20497;-67
2023/09/21 01:50:15;;;;;;;0.40;0.40;;;20.80;54.10;;;;;;5175788;27;20026;-66
2023/09/21 01:52:42;;;;;;;0.40;0.40;;;20.80;54.20;;;;;;5176170;27;20516;-66
2023/09/21 01:55:10;;;;;;;0.47;0.47;;;20.80;54.30;;;;;;5175615;27;20470;-66
2023/09/21 01:57:39;;;;;;;0.40;0.40;;;20.80;54.40;;;;;;5176029;27;20367;-66
2023/09/21 02:00:12;;;;;;;0.60;0.60;;;20.80;54.30;;;;;;5175533;27;20015;-66
2023/09/21 02:02:39;;;;;;;1.38;0.82;;;20.80;54.10;;;;;;5175897;27;20409;-66
2023/09/21 02:05:10;;;;;;;0.50;0.50;;;20.80;54.10;;;;;;5175484;27;20552;-66
2023/09/21 02:07:35;;;;;;;;;;;20.70;54.10;;;;;;5176231;27;20163;-66
2023/09/21 02:10:01;;;;;;;0.40;0.40;;;20.70;54.30;;;;;;5175285;27;19979;-66
2023/09/21 02:12:27;;;;;;;0.40;0.40;;;20.70;54.10;;;;;;5174216;27;20038;-67
2023/09/21 02:14:52;;;;;;;0.32;0.32;;;20.70;54.20;;;;;;5175511;27;20032;-66
2023/09/21 02:17:18;;;;;;;0.43;0.43;;;20.60;54.20;;;;;;5175390;27;20485;-66
2023/09/21 02:19:44;;;;;;;0.40;0.40;;;20.50;54.30;;;;;;5175289;27;20022;-68
2023/09/21 02:22:11;;;;;;;0.45;0.45;;;20.60;54.30;;;;;;5175450;27;20022;-66
2023/09/21 02:24:38;;;;;;;0.40;0.40;;;20.60;54.40;;;;;;5175172;27;20018;-66
2023/09/21 02:27:04;;;;;;;0.50;0.50;;;20.50;54.40;;;;;;5174877;27;20030;-66
2023/09/21 02:29:29;;;;;;;1.65;1.13;;;20.60;54.50;;;;;;5174953;27;20420;-67
2023/09/21 02:31:56;;;;;;;0.47;0.47;;;20.60;54.50;;;;;;5175333;27;20030;-66
2023/09/21 02:34:21;;;;;;;0.60;0.60;;;20.70;54.60;;;;;;5174846;27;20046;-66
2023/09/21 02:36:47;;;;;;;0.40;0.40;;;20.80;54.50;;;;;;5174834;27;20061;-66
2023/09/21 02:39:13;;;;;;;0.80;0.80;;;20.80;54.40;;;;;;5174895;27;20386;-66
2023/09/21 02:41:39;;;;;;;0.47;0.47;;;20.90;54.10;;;;;;5174853;27;20482;-66
2023/09/21 02:44:05;;;;;;;0.60;0.60;;;21.00;54.00;;;;;;5174873;27;20033;-67
2023/09/21 02:46:30;;;;;;;0.75;0.75;;;21.00;53.80;;;;;;5175363;27;20030;-69
2023/09/21 02:48:57;;;;;;;0.50;0.50;;;21.10;53.60;;;;;;5179866;27;20018;-70
2023/09/21 02:51:23;;;;;;;0.35;0.35;;;21.30;53.30;;;;;;5179571;27;20026;-70
2023/09/21 02:53:49;;;;;;;0.60;0.60;;;21.30;53.10;;;;;;5179323;27;20011;-70
2023/09/21 02:56:19;;;;;;;0.47;0.47;;;21.40;52.70;;;;;;5179069;27;20023;-67
2023/09/21 02:58:45;;;;;;;0.40;0.40;;;21.40;52.40;;;;;;5178222;27;20534;-68
2023/09/21 03:01:12;;;;;;;0.40;0.40;;;21.50;52.20;;;;;;5178269;27;20069;-69
2023/09/21 03:03:38;;;;;;;0.43;0.43;;;21.60;52.00;;;;;;5178764;27;20066;-69
2023/09/21 03:06:04;;;;;;;0.40;0.40;;;21.70;51.70;;;;;;5178663;27;20105;-69
2023/09/21 03:08:30;;;;;;;0.55;0.55;;;21.80;51.50;;;;;;5178219;27;20049;-69
2023/09/21 03:10:56;;;;;;;0.68;0.63;;;21.80;51.10;;;;;;5178527;27;20478;-69
2023/09/21 03:13:22;;;;;;;0.50;0.50;;;21.80;51.00;;;;;;5178074;27;20022;-69
2023/09/21 03:15:58;;;;;;;0.50;0.50;;;21.90;50.90;;;;;;5177799;27;20109;-69
2023/09/21 03:18:25;;;;;;;0.50;0.50;;;21.90;50.70;;;;;;5177987;27;20194;-69
2023/09/21 03:20:54;;;;;;;0.40;0.40;;;21.90;50.60;;;;;;5178251;27;20076;-69
2023/09/21 03:23:21;;;;;;;0.45;0.45;;;22.00;50.40;;;;;;5177565;27;20018;-69
2023/09/21 03:25:49;;;;;;;0.40;0.40;;;22.00;50.20;;;;;;5178177;27;20015;-69
2023/09/21 03:28:17;;;;;;;0.40;0.40;;;22.10;50.10;;;;;;5177113;27;20037;-69
2023/09/21 03:30:48;;;;;;;0.30;0.30;;;22.10;49.80;;;;;;5177830;27;20034;-69
2023/09/21 03:33:18;;;;;;;0.40;0.40;;;22.20;49.70;;;;;;5177739;27;20049;-69
2023/09/21 03:35:44;;;;;;;0.95;0.93;;;22.20;49.50;;;;;;5178226;27;20023;-69
2023/09/21 03:38:12;;;;;;;0.80;0.77;;;22.20;49.40;;;;;;5178333;27;20459;-69
2023/09/21 03:40:37;;;;;;;0.40;0.40;;;22.30;49.20;;;;;;5178190;27;20144;-69
2023/09/21 03:43:15;;;;;;;0.52;0.52;;;22.30;49.10;;;;;;5178167;27;20072;-69
2023/09/21 03:45:42;;;;;;;0.40;0.40;;;22.30;49.00;;;;;;5177671;27;20110;-69
2023/09/21 03:48:09;;;;;;;0.60;0.60;;;22.30;48.90;;;;;;5178692;27;20032;-69
2023/09/21 03:50:39;;;;;;;0.30;0.30;;;22.30;48.90;;;;;;5177864;27;20018;-69
2023/09/21 03:53:08;;;;;;;0.50;0.50;;;22.30;48.80;;;;;;5177983;27;20062;-69
2023/09/21 03:55:34;;;;;;;0.40;0.40;;;22.30;48.60;;;;;;5177839;27;20428;-69
2023/09/21 03:58:01;;;;;;;0.60;0.60;;;22.30;48.60;;;;;;5174691;27;20074;-67
2023/09/21 04:00:36;;;;;;;0.40;0.40;;;22.30;48.50;;;;;;5173578;27;20024;-67
2023/09/21 04:03:09;;;;;;;0.50;0.50;;;22.30;48.40;;;;;;5174054;27;20030;-66
2023/09/21 04:05:37;;;;;;;0.30;0.30;;;22.30;48.40;;;;;;5173717;27;20420;-66
2023/09/21 04:08:03;;;;;;;0.40;0.40;;;22.30;48.30;;;;;;5172456;27;20035;-66
2023/09/21 04:10:30;;;;;;;0.40;0.40;;;22.30;48.30;;;;;;5176536;27;20535;-66
2023/09/21 04:12:56;;;;;;;0.57;0.57;;;22.30;48.30;;;;;;5177487;27;20027;-67
2023/09/21 04:15:22;;;;;;;0.32;0.32;;;22.30;48.30;;;;;;5177469;27;20029;-67
2023/09/21 04:17:48;;;;;;;0.40;0.40;;;22.30;48.30;;;;;;5176214;27;20034;-69
2023/09/21 04:20:16;;;;;;;0.40;0.40;;;22.30;48.30;;;;;;5178083;27;20022;-66
2023/09/21 04:22:43;;;;;;;0.50;0.50;;;22.30;48.30;;;;;;5177986;27;20412;-67
2023/09/21 04:25:11;;;;;;;0.40;0.40;;;22.10;48.40;;;;;;5177532;27;20021;-68
2023/09/21 04:27:39;;;;;;;0.40;0.40;;;22.10;48.50;;;;;;5177878;27;20484;-68
2023/09/21 04:30:08;;;;;;;0.40;0.40;;;22.10;48.60;;;;;;5177477;27;20416;-65
2023/09/21 04:32:35;;;;;;;0.93;0.88;;;22.00;48.60;;;;;;5177632;27;20030;-69
2023/09/21 04:35:04;;;;;;;0.40;0.40;;;22.10;48.70;;;;;;5177563;27;20022;-68
2023/09/21 04:37:29;;;;;;;0.50;0.50;;;22.00;48.70;;;;;;5177278;27;20148;-67
2023/09/21 04:39:55;;;;;;;0.52;0.52;;;22.10;48.70;;;;;;5177104;27;20048;-66
2023/09/21 04:42:20;;;;;;;0.30;0.30;;;22.10;48.60;;;;;;5176973;27;20542;-66
2023/09/21 04:44:46;;;;;;;0.35;0.35;;;22.10;48.60;;;;;;5176798;27;20026;-66
2023/09/21 04:47:11;;;;;;;0.65;0.65;;;22.10;48.60;;;;;;5175565;27;20129;-67
2023/09/21 04:49:40;;;;;;;0.50;0.50;;;22.00;48.60;;;;;;5177057;27;20116;-66
2023/09/21 04:52:06;;;;;;;0.40;0.40;;;22.00;48.60;;;;;;5177108;27;20048;-66
2023/09/21 04:54:31;;;;;;;0.50;0.50;;;22.10;48.70;;;;;;5176814;27;20026;-66
2023/09/21 04:56:57;;;;;;;0.45;0.45;;;22.10;48.60;;;;;;5176573;27;20030;-67
2023/09/21 04:59:23;;;;;;;0.40;0.40;;;22.10;48.50;;;;;;5175564;27;20025;-67
2023/09/21 05:01:49;;;;;;;0.50;0.50;;;22.20;48.20;;;;;;5176792;27;20056;-67
2023/09/21 05:04:14;;;;;;;0.40;0.40;;;22.30;48.20;;;;;;5176762;27;20470;-67
2023/09/21 05:06:40;;;;;;;0.40;0.40;;;22.30;48.00;;;;;;5177098;27;20026;-67
2023/09/21 05:09:05;;;;;;;0.40;0.40;;;22.40;47.90;;;;;;5176592;27;20034;-68
2023/09/21 05:11:38;;;;;;;0.65;0.65;;;22.50;47.70;;;;;;5175267;27;20044;-67
2023/09/21 05:14:05;;;;;;;0.40;0.40;;;22.50;47.60;;;;;;5176777;27;20510;-67
2023/09/21 05:16:32;;;;;;;0.40;0.40;;;22.50;47.50;;;;;;5176338;27;20026;-67
2023/09/21 05:18:57;;;;;;;0.57;0.57;;;22.50;47.40;;;;;;5176586;27;20045;-67
2023/09/21 05:21:23;;;;;;;0.40;0.40;;;22.50;47.50;;;;;;5175367;27;20478;-67
2023/09/21 05:23:49;;;;;;;0.55;0.55;;;22.60;47.60;;;;;;5175064;27;20026;-68
2023/09/21 05:26:15;;;;;;;0.45;0.45;;;22.70;47.80;;;;;;5174921;27;20098;-68
2023/09/21 05:28:40;;;;;;;0.32;0.32;;;22.80;47.70;;;;;;5176630;27;20110;-67
2023/09/21 05:31:09;;;;;;;0.40;0.40;;;23.00;47.60;;;;;;5176009;27;20109;-67
2023/09/21 05:33:36;;;;;;;0.70;0.70;;;23.20;47.40;;;;;;5176105;27;20048;-67
2023/09/21 05:36:04;;;;;;;0.50;0.50;;;23.40;47.40;;;;;;5175036;27;20030;-68
2023/09/21 05:38:32;;;;;;;0.45;0.45;;;23.60;47.30;;;;;;5155297;27;20031;-68
2023/09/21 05:41:04;;;;;;;0.43;0.43;;;23.70;47.20;;;;;;5154903;27;20552;-68
2023/09/21 05:43:32;;;;;;;0.60;0.60;;;23.80;47.20;;;;;;5153961;27;20101;-68
2023/09/21 05:45:58;;;;;;;0.40;0.40;;;23.80;47.00;;;;;;5154987;27;20467;-68
2023/09/21 05:48:24;;;;;;;0.60;0.60;;;23.90;47.10;;;;;;5155050;27;20073;-68
2023/09/21 05:50:49;;;;;;;0.50;0.50;;;24.00;47.00;;;;;;5154948;27;20440;-68
2023/09/21 05:53:16;;;;;;;1.10;0.95;;;24.10;47.20;;;;;;5157238;27;20102;-67
2023/09/21 05:55:45;;;;;;;0.40;0.40;;;24.30;47.10;;;;;;5175836;27;20057;-69
2023/09/21 05:58:10;;;;;;;0.40;0.40;;;24.40;46.80;;;;;;5176313;27;20200;-69
2023/09/21 06:00:36;;;;;;;0.70;0.70;;;24.50;46.60;;;;;;5175823;27;20077;-68
2023/09/21 06:03:02;;;;;;;0.40;0.40;;;24.70;46.80;;;;;;5176217;27;20022;-68
2023/09/21 06:05:29;;;;;;;0.40;0.40;;;25.00;46.70;;;;;;5175708;27;20019;-68
2023/09/21 06:07:56;;;;;;;0.40;0.40;;;25.30;46.50;;;;;;5176116;27;20034;-68
2023/09/21 06:10:32;;;;;;;0.70;0.70;;;25.60;46.30;;;;;;5175772;27;20367;-68
2023/09/21 06:12:57;;;;;;;2.55;0.60;;;25.80;45.90;;;;;;5175983;27;20029;-68
2023/09/21 06:15:23;;;;;;;0.40;0.40;;;26.20;45.50;;;;;;5175877;27;20030;-68
2023/09/21 06:17:48;;;;;;;0.40;0.40;;;26.50;45.10;;;;;;5173970;27;20031;-68
2023/09/21 06:20:14;;;;;;;0.38;0.38;;;26.80;44.80;;;;;;5174406;27;20509;-69
2023/09/21 06:22:40;;;;;;;0.47;0.47;;;27.20;44.20;;;;;;5175955;27;20018;-68
2023/09/21 06:25:06;;;;;;;0.50;0.50;;;27.40;43.20;;;;;;5175242;27;20030;-68
2023/09/21 06:27:32;;;;;;;0.45;0.45;;;27.70;42.90;;;;;;5175645;27;20026;-68
2023/09/21 06:29:58;;;;;;;0.50;0.50;;;28.00;42.60;;;;;;5175221;27;20030;-69
2023/09/21 06:32:24;;;;;;;0.60;0.60;;;28.30;42.20;;;;;;5170847;27;20119;-68
2023/09/21 06:34:51;;;;;;;0.40;0.40;;;28.70;42.10;;;;;;5170713;27;20026;-68
2023/09/21 06:37:19;;;;;;;0.57;0.55;;;29.10;42.00;;;;;;5171639;27;20037;-68
2023/09/21 06:39:45;;;;;;;0.77;0.57;;;29.50;41.30;;;;;;5175195;27;20143;-69
2023/09/21 06:42:10;;;;;;;0.45;0.45;;;29.90;40.40;;;;;;5175227;27;20528;-70
2023/09/21 06:44:36;;;;;;;0.90;0.70;;;30.20;40.10;;;;;;5174930;27;20045;-70
2023/09/21 06:47:03;;;;;;;0.43;0.43;;;30.60;38.50;;;;;;5173657;27;20114;-68
2023/09/21 06:49:29;;;;;;;0.85;0.70;;;30.80;38.30;;;;;;5171999;27;20063;-69
2023/09/21 06:51:56;;;;;;;0.77;0.77;;;31.20;37.90;;;;;;5153956;27;20031;-68
2023/09/21 06:54:28;;;;;;;0.30;0.30;;;31.50;37.70;;;;;;5169152;27;20033;-69
2023/09/21 06:56:54;;;;;;;0.50;0.50;;;31.80;36.90;;;;;;5174809;27;20038;-69
2023/09/21 06:59:20;;;;;;;0.98;0.98;;;32.20;36.10;;;;;;5175223;27;20108;-68
2023/09/21 07:01:46;;;;;;;0.45;0.45;;;32.40;35.50;;;;;;5158480;27;20058;-69
2023/09/21 07:04:11;;;;;;;0.40;0.40;;;32.80;35.50;;;;;;5153679;27;20050;-70
2023/09/21 07:06:37;;;;;;;0.40;0.40;;;33.10;35.00;;;;;;5153719;27;20087;-69
2023/09/21 07:09:04;;;;;;;0.50;0.50;;;33.50;35.10;;;;;;5153482;27;20110;-69
2023/09/21 07:11:29;;;;;;;0.40;0.40;;;33.80;33.90;;;;;;5152269;27;20066;-70
2023/09/21 07:13:55;;;;;;;0.73;0.73;;;34.10;33.10;;;;;;5153264;27;20069;-70
2023/09/21 07:16:21;;;;;;;0.40;0.40;;;34.30;31.90;;;;;;5153537;27;20058;-70
2023/09/21 07:18:47;;;;;;;0.40;0.40;;;34.70;31.30;;;;;;5153241;27;20022;-69
2023/09/21 07:21:13;;;;;;;0.50;0.50;;;35.00;31.00;;;;;;5153365;27;20459;-70
2023/09/21 07:23:40;;;;;;;0.60;0.60;;;35.20;30.00;;;;;;5153397;27;20018;-69
2023/09/21 07:26:06;;;;;;;0.50;0.50;;;35.30;29.30;;;;;;5153320;27;20093;-69
2023/09/21 07:28:32;;;;;;;0.50;0.50;;;35.30;28.50;;;;;;5153008;27;20518;-69
2023/09/21 07:30:58;;;;;;;0.50;0.50;;;35.30;28.70;;;;;;5168740;27;20515;-71
2023/09/21 07:33:23;;;;;;;0.60;0.60;;;35.40;28.80;;;;;;5174220;27;20022;-69
2023/09/21 07:35:51;;;;;;;0.65;0.65;;;35.60;28.70;;;;;;5173897;27;20034;-70
2023/09/21 07:38:21;;;;;;;0.73;0.73;;;35.70;28.10;;;;;;5154844;27;20364;-70
2023/09/21 07:40:47;;;;;;;0.85;0.85;;;35.80;27.80;;;;;;5153691;27;20018;-70
2023/09/21 07:43:12;;;;;;;0.55;0.55;;;36.00;27.60;;;;;;5153418;27;20429;-70
2023/09/21 07:45:38;;;;;;;0.55;0.55;;;36.20;27.70;;;;;;5152547;27;20030;-69
2023/09/21 07:48:05;;;;;;;0.40;0.40;;;36.30;27.20;;;;;;5154698;27;20497;-69
2023/09/21 07:50:34;;;;;;;0.75;0.75;;;36.10;27.10;;;;;;5170693;27;20030;-71
2023/09/21 07:53:03;;;;;;;0.70;0.70;;;35.60;26.90;;;;;;5173430;27;20366;-69
2023/09/21 07:55:30;;;;;;;0.57;0.57;;;35.10;27.60;;;;;;5173053;27;20383;-69
2023/09/21 07:57:56;;;;;;;0.50;0.50;;;35.00;28.00;;;;;;5171998;27;20025;-69
2023/09/21 08:00:21;;;;;;;0.40;0.40;;;35.10;28.30;;;;;;5173761;27;20030;-69
2023/09/21 08:02:47;;;;;;;0.75;0.75;;;35.20;28.10;;;;;;5172820;27;20030;-68
2023/09/21 08:05:13;;;;;;;0.55;0.55;;;35.40;28.20;;;;;;5173807;27;20081;-69
2023/09/21 08:07:40;;;;;;;0.50;0.50;;;35.70;28.20;;;;;;5172080;27;20034;-69
2023/09/21 08:10:06;;;;;;;0.77;0.77;;;36.00;27.90;;;;;;5172755;27;20025;-70
2023/09/21 08:12:36;;;;;;;0.50;0.50;;;36.20;27.20;;;;;;5172891;27;20468;-69
2023/09/21 08:15:01;;;;;;;0.50;0.50;;;36.30;27.40;;;;;;5158989;27;20589;-69
2023/09/21 08:17:30;;;;;;;0.80;0.80;;;36.60;27.00;;;;;;5153054;27;20144;-69
2023/09/21 08:19:57;;;;;;;0.60;0.60;;;36.70;26.50;;;;;;5173174;27;20347;-69
2023/09/21 08:22:22;;;;;;;0.60;0.60;;;36.80;26.60;;;;;;5173891;27;20027;-69
2023/09/21 08:24:48;;;;;;;0.50;0.50;;;37.10;26.70;;;;;;5173459;27;20015;-70
2023/09/21 08:27:13;;;;;;;0.57;0.57;;;37.30;26.30;;;;;;5173794;27;20038;-69
2023/09/21 08:29:41;;;;;;;0.50;0.50;;;37.40;25.70;;;;;;5173160;27;20057;-69
2023/09/21 08:32:06;;;;;;;0.57;0.57;;;37.40;25.90;;;;;;5171426;27;20030;-70
2023/09/21 08:34:32;;;;;;;1.75;1.02;;;37.30;25.70;;;;;;5173503;27;20019;-69
2023/09/21 08:36:58;;;;;;;0.70;0.70;;;37.30;25.70;;;;;;5167816;27;20035;-68
2023/09/21 08:39:24;;;;;;;0.50;0.50;;;37.20;25.90;;;;;;5172126;27;20023;-68
2023/09/21 08:41:51;;;;;;;0.60;0.60;;;37.20;26.00;;;;;;5171751;27;20034;-68
2023/09/21 08:44:20;;;;;;;0.65;0.65;;;37.40;26.20;;;;;;5172098;27;20394;-69
2023/09/21 08:46:47;;;;;;;0.60;0.60;;;37.60;25.80;;;;;;5167411;27;20030;-69
2023/09/21 08:49:14;;;;;;;0.60;0.60;;;37.70;26.00;;;;;;5160668;27;20466;-69
2023/09/21 08:51:41;;;;;;;0.90;0.90;;;37.80;25.80;;;;;;5171865;27;20054;-69
2023/09/21 08:54:07;;;;;;;1.05;0.68;;;37.80;25.10;;;;;;5173198;27;20025;-68
2023/09/21 08:56:36;;;;;;;1.08;0.73;;;37.70;25.20;;;;;;5165109;27;20045;-68
2023/09/21 08:59:04;;;;;;;0.65;0.65;;;37.80;25.50;;;;;;5169498;27;20034;-68
2023/09/21 09:01:30;;;;;;;0.57;0.57;;;37.80;25.30;;;;;;5175614;27;20033;-68
2023/09/21 09:03:56;;;;;;;0.85;0.80;;;37.80;25.60;;;;;;5175233;27;20018;-69
2023/09/21 09:06:22;;;;;;;0.70;0.70;;;38.00;25.50;;;;;;5176877;27;20101;-69
2023/09/21 09:08:48;;;;;;;0.60;0.60;;;38.10;25.30;;;;;;5176529;27;20105;-69
2023/09/21 09:11:44;;;;;;;0.70;0.70;;;38.20;25.20;;;;;;5176740;27;20037;-70
2023/09/21 09:14:18;;;;;;;0.73;0.73;;;38.10;25.40;;;;;;5176136;27;20030;-69
2023/09/21 09:16:44;;;;;;;0.60;0.60;;;37.80;25.20;;;;;;5176738;27;20035;-69
2023/09/21 09:19:11;;;;;;;1.35;1.05;;;37.70;25.60;;;;;;5176897;27;20023;-68
2023/09/21 09:21:37;;;;;;;0.50;0.50;;;37.60;25.80;;;;;;5176551;27;20518;-67
2023/09/21 09:24:04;;;;;;;0.60;0.60;;;37.40;25.90;;;;;;5176317;27;20378;-68
2023/09/21 09:26:30;;;;;;;0.50;0.50;;;37.20;25.90;;;;;;5176618;27;20030;-68
2023/09/21 09:29:04;;;;;;;0.50;0.50;;;36.90;26.30;;;;;;5176302;27;20022;-68
2023/09/21 09:31:30;;;;;;;0.80;0.80;;;36.80;27.00;;;;;;5176262;27;20394;-68
2023/09/21 09:33:57;;;;;;;0.60;0.60;;;36.90;27.00;;;;;;5176100;27;20018;-69
2023/09/21 09:36:24;;;;;;;0.50;0.50;;;37.00;26.80;;;;;;5176266;27;20029;-69
2023/09/21 09:38:50;;;;;;;0.50;0.50;;;37.10;27.10;;;;;;5175980;27;20466;-70
2023/09/21 09:41:18;;;;;;;0.63;0.63;;;37.30;26.80;;;;;;5176454;27;20027;-69
2023/09/21 09:43:50;;;;;;;0.47;0.47;;;37.20;26.40;;;;;;5176228;27;20445;-69
2023/09/21 09:46:22;;;;;;;0.50;0.50;;;37.10;26.60;;;;;;5178289;27;20463;-70
2023/09/21 09:48:50;;;;;;;0.70;0.70;;;37.00;27.00;;;;;;5181008;27;20101;-70
2023/09/21 09:51:25;;;;;;;0.57;0.57;;;36.80;27.10;;;;;;5178691;27;20443;-70
2023/09/21 09:53:53;;;;;;;0.43;0.43;;;36.50;27.50;;;;;;5178538;27;20577;-71
2023/09/21 09:56:19;;;;;;;1.00;0.90;;;36.20;27.80;;;;;;5179216;27;20070;-69
2023/09/21 09:58:47;;;;;;;0.43;0.43;;;36.00;28.50;;;;;;5178717;27;20457;-71
2023/09/21 10:01:14;;;;;;;0.70;0.70;;;36.10;29.10;;;;;;5178991;27;20033;-70
2023/09/21 10:03:43;;;;;;;0.60;0.60;;;36.30;28.40;;;;;;5179770;27;20022;-69
2023/09/21 10:06:09;;;;;;;0.50;0.50;;;36.50;28.30;;;;;;5159332;27;20068;-70
2023/09/21 10:08:38;;;;;;;0.82;0.82;;;36.70;28.50;;;;;;5157398;27;20047;-70
2023/09/21 10:11:05;;;;;;;0.50;0.50;;;36.70;27.60;;;;;;5157514;27;20022;-70
2023/09/21 10:13:30;;;;;;;0.50;0.50;;;36.70;27.60;;;;;;5158398;27;20416;-70
2023/09/21 10:16:03;;;;;;;0.43;0.43;;;36.60;27.60;;;;;;5157121;27;20107;-70
2023/09/21 10:18:40;;;;;;;0.50;0.50;;;36.60;27.80;;;;;;5158256;27;20058;-70
2023/09/21 10:21:24;;;;;;;1.30;0.60;;;36.70;28.10;;;;;;5158660;27;20018;-69
2023/09/21 10:24:02;;;;;;;0.50;0.50;;;36.80;28.00;;;;;;5157230;27;20019;-70
2023/09/21 10:26:30;;;;;;;0.50;0.50;;;36.80;27.90;;;;;;5157204;27;20459;-70
2023/09/21 10:28:56;;;;;;;0.50;0.50;;;36.90;28.30;;;;;;5157170;27;20034;-71
2023/09/21 10:31:27;;;;;;;0.50;0.50;;;37.10;28.30;;;;;;5171629;27;20030;-71
2023/09/21 10:33:54;;;;;;;0.60;0.60;;;37.30;28.00;;;;;;5179091;27;20023;-71
2023/09/21 10:36:27;;;;;;;0.70;0.70;;;37.50;28.00;;;;;;5176220;27;20489;-71
2023/09/21 10:39:05;;;;;;;3.50;0.70;;;37.80;27.20;;;;;;5157471;27;20069;-71
2023/09/21 10:41:31;;;;;;;0.82;0.82;;;38.00;26.90;;;;;;5156933;27;20120;-71
2023/09/21 10:43:57;;;;;;;1.02;1.00;;;38.00;26.60;;;;;;5156217;27;20524;-71
2023/09/21 10:46:26;;;;;;;0.50;0.50;;;37.80;26.40;;;;;;5157385;27;20058;-70
2023/09/21 10:49:13;;;;;;;0.52;0.52;;;37.30;26.80;;;;;;5157069;27;20387;-71
2023/09/21 10:51:39;;;;;;;0.75;0.70;;;36.90;27.30;;;;;;5158544;27;20045;-70
2023/09/21 10:54:06;;;;;;;0.52;0.52;;;36.50;27.60;;;;;;5158047;27;20495;-70
2023/09/21 10:56:33;;;;;;;0.50;0.50;;;36.10;28.00;;;;;;5157971;27;20031;-69
2023/09/21 10:58:59;;;;;;;0.65;0.65;;;35.80;28.50;;;;;;5152305;27;20151;-69
2023/09/21 11:01:25;;;;;;;0.40;0.40;;;35.50;29.00;;;;;;5153823;27;20111;-69
2023/09/21 11:03:51;;;;;;;0.50;0.50;;;35.30;29.40;;;;;;5153579;27;20098;-69
2023/09/21 11:06:17;;;;;;;0.47;0.47;;;35.20;29.70;;;;;;5174627;27;20022;-69
2023/09/21 11:08:46;;;;;;;0.38;0.38;;;35.00;29.80;;;;;;5174363;27;20097;-69
2023/09/21 11:11:12;;;;;;;0.40;0.40;;;34.80;30.10;;;;;;5174305;27;20374;-69
2023/09/21 11:13:41;;;;;;;0.65;0.65;;;34.80;30.40;;;;;;5174381;27;20018;-68
2023/09/21 11:16:09;;;;;;;0.50;0.50;;;34.90;30.30;;;;;;5174035;27;20358;-68
2023/09/21 11:18:36;;;;;;;0.50;0.50;;;34.80;30.40;;;;;;5171535;27;20031;-68
2023/09/21 11:21:03;;;;;;;0.55;0.55;;;34.80;30.60;;;;;;5173278;27;20026;-68
2023/09/21 11:23:31;;;;;;;1.38;0.88;;;34.90;30.60;;;;;;5173675;27;20471;-68
2023/09/21 11:25:59;;;;;;;0.50;0.50;;;34.80;30.60;;;;;;5172820;27;20364;-68
2023/09/21 11:28:24;;;;;;;0.50;0.50;;;34.70;30.70;;;;;;5172572;27;20497;-68
2023/09/21 11:30:51;;;;;;;0.80;0.80;;;34.40;30.80;;;;;;5170610;27;20158;-68
2023/09/21 11:33:19;;;;;;;0.40;0.40;;;34.10;31.30;;;;;;5173874;27;20030;-68
2023/09/21 11:35:45;;;;;;;0.50;0.50;;;33.80;31.60;;;;;;5173881;27;20026;-68
2023/09/21 11:38:12;;;;;;;0.60;0.60;;;33.40;32.00;;;;;;5169043;27;20540;-68
2023/09/21 11:40:37;;;;;;;0.50;0.50;;;33.20;32.40;;;;;;5173645;27;20022;-68
2023/09/21 11:43:04;;;;;;;0.47;0.47;;;33.00;32.80;;;;;;5174303;27;20027;-67
2023/09/21 11:45:34;;;;;;;0.38;0.38;;;32.70;33.20;;;;;;5173489;27;20478;-67
2023/09/21 11:47:59;;;;;;;0.52;0.52;;;32.70;33.50;;;;;;5173864;27;20174;-68
2023/09/21 11:50:30;;;;;;;0.40;0.40;;;32.60;33.80;;;;;;5173481;27;20054;-67
2023/09/21 11:52:57;;;;;;;0.50;0.50;;;32.50;34.10;;;;;;5171048;27;20046;-67
2023/09/21 11:55:24;;;;;;;0.30;0.30;;;32.30;34.40;;;;;;5167077;27;20059;-67
2023/09/21 11:57:51;;;;;;;0.40;0.40;;;32.30;34.50;;;;;;5171444;27;20022;-67
2023/09/21 12:00:38;;;;;;;0.50;0.50;;;32.20;34.80;;;;;;5152410;27;20531;-67
2023/09/21 12:03:04;;;;;;;0.50;0.50;;;32.20;35.00;;;;;;5160647;27;20010;-68
2023/09/21 12:05:31;;;;;;;0.70;0.70;;;32.20;35.20;;;;;;5172664;27;20014;-69
2023/09/21 12:07:57;;;;;;;1.95;1.23;;;32.20;35.20;;;;;;5173572;27;20105;-68
2023/09/21 12:10:23;;;;;;;0.45;0.45;;;32.20;35.30;;;;;;5173407;27;20076;-68
2023/09/21 12:12:50;;;;;;;1.08;0.52;;;32.30;35.30;;;;;;5171841;27;20126;-68
2023/09/21 12:15:17;;;;;;;0.30;0.30;;;32.30;35.20;;;;;;5172141;27;20109;-67
2023/09/21 12:17:43;;;;;;;0.50;0.50;;;32.20;35.10;;;;;;5174118;27;20056;-68
2023/09/21 12:20:17;;;;;;;0.50;0.50;;;32.20;35.20;;;;;;5172417;27;20065;-68
2023/09/21 12:22:43;;;;;;;0.52;0.52;;;32.20;35.20;;;;;;5173868;27;20472;-69
2023/09/21 12:25:09;;;;;;;0.60;0.60;;;32.20;35.20;;;;;;5170567;27;20411;-68
2023/09/21 12:27:35;;;;;;;0.52;0.52;;;32.20;35.30;;;;;;5172011;27;20051;-68
2023/09/21 12:30:01;;;;;;;0.30;0.30;;;32.20;35.30;;;;;;5172214;27;20418;-68
2023/09/21 12:32:28;;;;;;;0.40;0.40;;;32.20;35.50;;;;;;5177377;27;20038;-68
2023/09/21 12:34:54;;;;;;;0.45;0.45;;;32.30;35.60;;;;;;5176354;27;20493;-69
2023/09/21 12:37:21;;;;;;;1.20;0.63;;;32.40;35.50;;;;;;5166548;27;20027;-70
2023/09/21 12:39:47;;;;;;;0.50;0.50;;;32.40;35.60;;;;;;5156544;27;20019;-68
2023/09/21 12:42:14;;;;;;;0.40;0.40;;;32.40;35.60;;;;;;5166734;27;20417;-68
2023/09/21 12:44:42;;;;;;;0.40;0.40;;;32.40;35.60;;;;;;5177090;27;20531;-68
2023/09/21 12:47:09;;;;;;;1.30;0.45;;;32.40;35.60;;;;;;5175879;27;20037;-68
2023/09/21 12:49:35;;;;;;;0.50;0.50;;;32.40;35.70;;;;;;5175942;27;20390;-68